createdAt,value
2017-06-28T00:01:50.834Z,65.40
2017-06-28T00:04:18.447Z,65.40
2017-06-28T00:06:46.702Z,65.30
2017-06-28T00:09:14.632Z,65.30
2017-06-28T00:11:42.952Z,65.20
2017-06-28T00:14:11.601Z,65.20
2017-06-28T00:16:39.803Z,65.30
2017-06-28T00:19:07.327Z,65.30
2017-06-28T00:21:35.461Z,65.30
2017-06-28T00:24:03.315Z,65.40
2017-06-28T00:26:31.095Z,65.40
2017-06-28T00:28:58.657Z,65.80
2017-06-28T00:31:26.369Z,65.70
2017-06-28T00:33:55.319Z,65.80
2017-06-28T00:36:22.819Z,65.80
2017-06-28T00:38:50.526Z,65.60
2017-06-28T00:41:18.051Z,65.60
2017-06-28T00:43:45.954Z,65.50
2017-06-28T00:46:14.157Z,65.50
2017-06-28T00:48:41.912Z,65.50
2017-06-28T00:51:09.526Z,65.50
2017-06-28T00:53:37.233Z,65.60
2017-06-28T00:56:04.767Z,65.60
2017-06-28T00:58:32.301Z,65.70
2017-06-28T01:01:00.832Z,65.70
2017-06-28T01:03:28.437Z,65.70
2017-06-28T01:05:56.032Z,65.70
2017-06-28T01:08:23.672Z,65.80
2017-06-28T01:10:51.286Z,65.70
2017-06-28T01:13:19.320Z,65.80
2017-06-28T01:15:46.779Z,65.80
2017-06-28T01:18:14.713Z,65.90
2017-06-28T01:20:42.752Z,66.10
2017-06-28T01:23:10.331Z,66.00
2017-06-28T01:25:37.905Z,66.00
2017-06-28T01:28:05.391Z,66.10
2017-06-28T01:30:33.289Z,66.10
2017-06-28T01:33:00.852Z,66.10
2017-06-28T01:35:28.382Z,66.10
2017-06-28T01:37:57.293Z,66.10
2017-06-28T01:40:24.822Z,66.10
2017-06-28T01:42:52.306Z,66.20
2017-06-28T01:45:20.244Z,66.10
2017-06-28T01:47:47.785Z,66.10
2017-06-28T01:50:15.295Z,66.20
2017-06-28T01:52:43.187Z,66.20
2017-06-28T01:55:10.794Z,66.20
2017-06-28T01:57:38.480Z,66.30
2017-06-28T02:00:05.962Z,66.30
2017-06-28T02:02:33.854Z,66.30
2017-06-28T02:05:01.538Z,66.30
2017-06-28T02:07:28.980Z,66.30
2017-06-28T02:09:56.467Z,66.30
2017-06-28T02:12:24.027Z,66.20
2017-06-28T02:14:51.492Z,66.20
2017-06-28T02:17:19.090Z,66.30
2017-06-28T02:19:46.543Z,66.30
2017-06-28T02:22:14.008Z,66.80
2017-06-28T02:24:41.557Z,66.70
2017-06-28T02:27:09.071Z,66.80
2017-06-28T02:29:37.835Z,66.50
2017-06-28T02:32:05.347Z,66.50
2017-06-28T02:34:33.203Z,66.80
2017-06-28T02:37:01.437Z,67.00
2017-06-28T02:39:28.974Z,67.00
2017-06-28T02:41:56.518Z,66.80
2017-06-28T02:44:24.428Z,66.60
2017-06-28T02:46:51.942Z,66.60
2017-06-28T02:49:19.860Z,67.40
2017-06-28T02:51:47.337Z,67.40
2017-06-28T02:54:14.856Z,67.80
2017-06-28T02:56:42.405Z,68.10
2017-06-28T02:59:10.988Z,68.20
2017-06-28T03:01:38.595Z,68.20
2017-06-28T03:04:06.171Z,68.20
2017-06-28T03:06:33.719Z,68.20
2017-06-28T03:09:01.230Z,68.30
2017-06-28T03:11:29.438Z,68.00
2017-06-28T03:13:57.307Z,67.90
2017-06-28T03:16:25.169Z,67.90
2017-06-28T03:18:53.092Z,67.90
2017-06-28T03:21:20.613Z,67.90
2017-06-28T03:23:48.524Z,68.10
2017-06-28T03:26:16.088Z,68.10
2017-06-28T03:28:43.609Z,68.70
2017-06-28T03:31:11.151Z,69.00
2017-06-28T03:33:38.878Z,69.50
2017-06-28T03:36:06.402Z,70.50
2017-06-28T03:38:34.321Z,72.50
2017-06-28T03:41:02.074Z,72.50
2017-06-28T03:43:29.577Z,73.20
2017-06-28T03:45:57.076Z,72.90
2017-06-28T03:48:24.653Z,73.90
2017-06-28T03:50:52.138Z,74.30
2017-06-28T03:53:19.708Z,75.00
2017-06-28T03:55:47.289Z,75.20
2017-06-28T03:58:14.767Z,75.90
2017-06-28T04:00:42.293Z,76.40
2017-06-28T04:03:09.844Z,76.40
2017-06-28T04:05:37.352Z,76.70
2017-06-28T04:08:04.900Z,76.80
2017-06-28T04:10:34.133Z,76.80
2017-06-28T04:13:01.682Z,77.00
2017-06-28T04:15:29.289Z,77.40
2017-06-28T04:17:57.214Z,77.30
2017-06-28T04:20:25.526Z,77.30
2017-06-28T04:22:53.403Z,77.40
2017-06-28T04:25:21.417Z,77.30
2017-06-28T04:27:48.939Z,77.30
2017-06-28T04:30:16.875Z,77.40
2017-06-28T04:32:44.387Z,77.40
2017-06-28T04:35:12.382Z,77.40
2017-06-28T04:37:39.909Z,77.40
2017-06-28T04:40:07.816Z,77.60
2017-06-28T04:42:35.787Z,77.60
2017-06-28T04:45:03.365Z,77.50
2017-06-28T04:47:30.900Z,77.60
2017-06-28T04:49:58.795Z,77.70
2017-06-28T04:52:26.437Z,77.70
2017-06-28T04:54:54.321Z,78.20
2017-06-28T04:57:22.834Z,78.20
2017-06-28T04:59:50.394Z,78.10
2017-06-28T05:02:17.930Z,77.90
2017-06-28T05:04:45.435Z,77.60
2017-06-28T05:07:12.944Z,77.50
2017-06-28T05:09:40.830Z,77.10
2017-06-28T05:12:08.352Z,77.10
2017-06-28T05:14:35.883Z,77.10
2017-06-28T05:17:03.406Z,77.00
2017-06-28T05:19:31.338Z,77.00
2017-06-28T05:21:58.877Z,77.00
2017-06-28T05:24:26.379Z,77.10
2017-06-28T05:26:53.963Z,77.20
2017-06-28T05:29:21.897Z,77.80
2017-06-28T05:31:49.610Z,77.80
2017-06-28T05:34:17.137Z,77.90
2017-06-28T05:36:44.652Z,78.40
2017-06-28T05:39:12.194Z,78.40
2017-06-28T05:41:40.133Z,78.10
2017-06-28T05:44:07.629Z,78.20
2017-06-28T05:46:35.551Z,78.10
2017-06-28T05:49:03.648Z,78.10
2017-06-28T05:51:31.141Z,78.20
2017-06-28T05:53:59.035Z,77.90
2017-06-28T05:56:26.611Z,77.90
2017-06-28T05:58:54.133Z,78.10
2017-06-28T06:01:21.618Z,77.50
2017-06-28T06:03:49.187Z,77.70
2017-06-28T06:06:16.708Z,77.50
2017-06-28T06:08:44.153Z,77.10
2017-06-28T06:11:11.731Z,77.30
2017-06-28T06:13:39.286Z,77.20
2017-06-28T06:16:06.865Z,77.40
2017-06-28T06:18:34.380Z,76.80
2017-06-28T06:21:02.197Z,76.60
2017-06-28T06:23:30.606Z,76.90
2017-06-28T06:25:58.537Z,76.80
2017-06-28T06:28:26.092Z,76.80
2017-06-28T06:30:53.592Z,77.10
2017-06-28T06:33:21.088Z,77.50
2017-06-28T06:35:48.614Z,77.60
2017-06-28T06:38:16.120Z,77.40
2017-06-28T06:40:43.879Z,77.60
2017-06-28T06:43:11.484Z,77.80
2017-06-28T06:45:38.989Z,78.10
2017-06-28T06:48:06.855Z,78.30
2017-06-28T06:50:34.457Z,78.30
2017-06-28T06:53:01.968Z,78.20
2017-06-28T06:55:29.474Z,78.30
2017-06-28T06:57:57.026Z,78.70
2017-06-28T07:00:25.100Z,78.90
2017-06-28T07:02:52.989Z,78.70
2017-06-28T07:05:20.621Z,78.60
2017-06-28T07:07:48.700Z,78.50
2017-06-28T07:10:16.617Z,78.50
2017-06-28T07:12:44.074Z,78.50
2017-06-28T07:15:11.521Z,78.60
2017-06-28T07:17:39.053Z,78.60
2017-06-28T07:20:06.562Z,79.00
2017-06-28T07:22:34.063Z,79.00
2017-06-28T07:25:01.605Z,79.20
2017-06-28T07:27:29.109Z,79.30
2017-06-28T07:29:56.606Z,79.50
2017-06-28T07:32:24.547Z,79.60
2017-06-28T07:34:52.413Z,79.70
2017-06-28T07:37:19.898Z,79.70
2017-06-28T07:39:47.354Z,79.80
2017-06-28T07:42:14.808Z,80.00
2017-06-28T07:44:42.599Z,80.00
2017-06-28T07:47:10.066Z,80.30
2017-06-28T07:49:37.571Z,80.40
2017-06-28T07:52:05.111Z,80.70
2017-06-28T07:54:32.594Z,80.80
2017-06-28T07:57:00.128Z,80.80
2017-06-28T07:59:27.884Z,80.50
2017-06-28T08:01:55.370Z,80.90
2017-06-28T08:04:22.879Z,80.80
2017-06-28T08:06:50.654Z,80.80
2017-06-28T08:09:18.173Z,80.70
2017-06-28T08:11:45.721Z,80.70
2017-06-28T08:14:13.273Z,80.50
2017-06-28T08:16:40.802Z,80.20
2017-06-28T08:19:08.323Z,80.10
2017-06-28T08:21:35.969Z,80.60
2017-06-28T08:24:03.493Z,80.60
2017-06-28T08:26:31.857Z,80.70
2017-06-28T08:28:59.391Z,80.70
2017-06-28T08:31:26.920Z,80.90
2017-06-28T08:33:54.840Z,80.60
2017-06-28T08:36:23.120Z,80.60
2017-06-28T08:38:50.690Z,80.30
2017-06-28T08:41:18.277Z,79.30
2017-06-28T08:43:45.770Z,79.30
2017-06-28T08:46:13.662Z,79.60
2017-06-28T08:48:41.310Z,79.60
2017-06-28T08:51:09.294Z,79.30
2017-06-28T08:53:36.787Z,79.30
2017-06-28T08:56:04.332Z,79.30
2017-06-28T08:58:33.007Z,79.70
2017-06-28T09:01:00.507Z,79.30
2017-06-28T09:03:28.030Z,79.00
2017-06-28T09:05:55.584Z,79.10
2017-06-28T09:08:23.764Z,79.10
2017-06-28T09:10:51.639Z,78.70
2017-06-28T09:13:19.168Z,78.70
2017-06-28T09:15:46.674Z,77.60
2017-06-28T09:18:14.485Z,78.00
2017-06-28T09:20:42.132Z,77.90
2017-06-28T09:23:09.708Z,76.60
2017-06-28T09:25:37.216Z,77.30
2017-06-28T09:28:05.114Z,77.00
2017-06-28T09:30:32.661Z,77.00
2017-06-28T09:33:00.562Z,76.30
2017-06-28T09:35:28.111Z,76.30
2017-06-28T09:37:55.616Z,74.50
2017-06-28T09:40:23.253Z,74.70
2017-06-28T09:42:50.801Z,75.20
2017-06-28T09:47:52.246Z,75.40
2017-06-28T09:50:20.044Z,74.00
2017-06-28T09:52:47.523Z,73.30
2017-06-28T09:55:15.185Z,73.40
2017-06-28T09:57:42.791Z,72.90
2017-06-28T10:00:10.286Z,71.80
2017-06-28T10:02:38.126Z,72.20
2017-06-28T10:05:05.724Z,72.30
2017-06-28T10:07:33.642Z,70.20
2017-06-28T10:10:01.149Z,70.20
2017-06-28T10:12:29.247Z,71.80
2017-06-28T10:14:57.156Z,70.70
2017-06-28T10:17:24.656Z,70.70
2017-06-28T10:19:52.203Z,71.30
2017-06-28T10:22:19.701Z,70.50
2017-06-28T10:24:47.579Z,71.00
2017-06-28T10:27:15.113Z,71.00
2017-06-28T10:29:42.657Z,71.60
2017-06-28T10:32:10.954Z,71.30
2017-06-28T10:34:38.493Z,71.00
2017-06-28T10:37:05.981Z,70.60
2017-06-28T10:39:33.898Z,69.90
2017-06-28T10:42:01.404Z,69.90
2017-06-28T10:44:28.923Z,69.20
2017-06-28T10:46:56.493Z,68.40
2017-06-28T10:49:24.036Z,68.50
2017-06-28T10:51:51.523Z,69.00
2017-06-28T10:54:19.062Z,68.30
2017-06-28T10:56:47.000Z,69.00
2017-06-28T10:59:14.487Z,69.00
2017-06-28T11:01:42.394Z,69.10
2017-06-28T11:04:09.937Z,69.10
2017-06-28T11:06:37.841Z,70.30
2017-06-28T11:09:05.349Z,70.30
2017-06-28T11:11:32.865Z,70.00
2017-06-28T11:14:01.930Z,70.70
2017-06-28T11:16:29.907Z,70.10
2017-06-28T11:18:57.371Z,70.20
2017-06-28T11:21:24.907Z,70.30
2017-06-28T11:23:52.416Z,70.10
2017-06-28T11:26:19.954Z,69.50
2017-06-28T11:28:47.480Z,68.90
2017-06-28T11:31:15.190Z,68.30
2017-06-28T11:33:43.127Z,66.10
2017-06-28T11:36:10.619Z,66.10
2017-06-28T11:38:38.796Z,64.60
2017-06-28T11:41:06.664Z,64.80
2017-06-28T11:43:34.325Z,64.90
2017-06-28T11:46:02.255Z,63.60
2017-06-28T11:48:29.799Z,63.70
2017-06-28T11:50:57.283Z,64.10
2017-06-28T11:53:25.009Z,64.60
2017-06-28T11:55:52.528Z,63.80
2017-06-28T11:58:20.126Z,63.90
2017-06-28T12:00:47.687Z,64.10
2017-06-28T12:03:16.749Z,65.30
2017-06-28T12:05:45.105Z,65.30
2017-06-28T12:08:12.631Z,63.90
2017-06-28T12:10:40.166Z,64.30
2017-06-28T12:13:08.042Z,64.20
2017-06-28T12:15:35.533Z,63.90
2017-06-28T12:18:03.054Z,63.50
2017-06-28T12:20:30.806Z,63.90
2017-06-28T12:22:58.306Z,63.10
2017-06-28T12:25:25.792Z,62.90
2017-06-28T12:27:53.921Z,63.10
2017-06-28T12:30:21.433Z,63.10
2017-06-28T12:32:49.393Z,63.00
2017-06-28T12:35:16.940Z,63.10
2017-06-28T12:37:44.501Z,63.70
2017-06-28T12:40:12.037Z,64.60
2017-06-28T12:42:39.585Z,66.20
2017-06-28T12:45:07.394Z,67.70
2017-06-28T12:47:35.097Z,67.10
2017-06-28T12:50:03.077Z,70.30
2017-06-28T12:52:30.966Z,68.00
2017-06-28T12:54:58.489Z,68.00
2017-06-28T12:57:25.984Z,66.80
2017-06-28T12:59:53.532Z,66.80
2017-06-28T13:02:21.537Z,67.20
2017-06-28T13:04:49.002Z,67.20
2017-06-28T13:07:16.540Z,66.40
2017-06-28T13:09:44.463Z,67.10
2017-06-28T13:12:11.943Z,67.10
2017-06-28T13:14:39.447Z,67.40
2017-06-28T13:17:07.323Z,67.10
2017-06-28T13:19:34.916Z,67.10
2017-06-28T13:22:02.453Z,67.30
2017-06-28T13:24:30.629Z,66.40
2017-06-28T13:26:58.526Z,65.00
2017-06-28T13:29:26.042Z,65.00
2017-06-28T13:31:53.976Z,64.70
2017-06-28T13:34:21.481Z,64.70
2017-06-28T13:36:49.005Z,64.70
2017-06-28T13:39:16.498Z,63.30
2017-06-28T13:41:44.375Z,62.20
2017-06-28T13:44:11.935Z,62.20
2017-06-28T13:46:39.427Z,63.50
2017-06-28T13:49:06.935Z,63.90
2017-06-28T13:51:34.467Z,61.50
2017-06-28T13:54:01.998Z,61.60
2017-06-28T13:56:30.000Z,62.90
2017-06-28T13:58:57.490Z,62.90
2017-06-28T14:01:26.009Z,61.30
2017-06-28T14:03:53.572Z,59.40
2017-06-28T14:06:21.017Z,59.60
2017-06-28T14:08:48.606Z,59.20
2017-06-28T14:11:16.993Z,58.90
2017-06-28T14:13:44.975Z,57.60
2017-06-28T14:16:12.488Z,57.60
2017-06-28T14:18:40.076Z,58.00
2017-06-28T14:21:07.638Z,56.90
2017-06-28T14:23:35.129Z,57.20
2017-06-28T14:26:03.014Z,57.00
2017-06-28T14:28:30.587Z,57.10
2017-06-28T14:30:58.068Z,57.00
2017-06-28T14:33:26.435Z,58.10
2017-06-28T14:35:54.095Z,57.30
2017-06-28T14:38:21.604Z,55.40
2017-06-28T14:40:49.103Z,54.60
2017-06-28T14:43:16.660Z,54.80
2017-06-28T14:45:44.674Z,55.60
2017-06-28T14:48:12.201Z,55.60
2017-06-28T14:50:39.725Z,55.30
2017-06-28T14:53:07.884Z,55.90
2017-06-28T14:55:36.655Z,55.30
2017-06-28T14:58:05.190Z,55.30
2017-06-28T15:00:33.619Z,55.20
2017-06-28T15:03:02.506Z,54.80
2017-06-28T15:05:30.973Z,55.30
2017-06-28T15:07:59.618Z,55.30
2017-06-28T15:10:28.204Z,55.30
2017-06-28T15:12:56.469Z,55.30
2017-06-28T15:15:24.670Z,55.30
2017-06-28T15:17:53.472Z,54.50
2017-06-28T15:20:21.714Z,55.30
2017-06-28T15:22:50.057Z,53.90
2017-06-28T15:25:20.528Z,53.90
2017-06-28T15:27:48.919Z,54.80
2017-06-28T15:30:17.484Z,55.10
2017-06-28T15:32:45.402Z,55.10
2017-06-28T15:35:13.689Z,54.90
2017-06-28T15:37:42.270Z,55.10
2017-06-28T15:40:11.720Z,55.20
2017-06-28T15:42:40.826Z,55.30
2017-06-28T15:45:09.537Z,54.90
2017-06-28T15:47:38.231Z,54.90
2017-06-28T15:50:07.027Z,55.10
2017-06-28T15:52:35.472Z,55.10
2017-06-28T15:55:03.997Z,54.40
2017-06-28T15:57:32.555Z,54.40
2017-06-28T16:00:01.272Z,54.30
2017-06-28T16:02:30.335Z,54.00
2017-06-28T16:04:58.758Z,54.00
2017-06-28T16:07:27.097Z,54.90
2017-06-28T16:09:55.630Z,53.70
2017-06-28T16:12:24.342Z,53.70
2017-06-28T16:14:52.694Z,53.00
2017-06-28T16:17:21.040Z,53.20
2017-06-28T16:19:50.581Z,52.80
2017-06-28T16:22:18.771Z,52.80
2017-06-28T16:24:47.098Z,52.30
2017-06-28T16:27:16.849Z,52.90
2017-06-28T16:29:46.115Z,52.90
2017-06-28T16:32:14.442Z,52.90
2017-06-28T16:34:42.633Z,52.80
2017-06-28T16:37:11.258Z,52.40
2017-06-28T16:39:40.080Z,52.00
2017-06-28T16:42:08.399Z,51.90
2017-06-28T16:44:38.016Z,53.10
2017-06-28T16:47:06.757Z,53.20
2017-06-28T16:49:35.192Z,52.60
2017-06-28T16:52:03.906Z,52.80
2017-06-28T16:54:32.761Z,53.00
2017-06-28T16:57:01.143Z,52.90
2017-06-28T16:59:30.398Z,53.20
2017-06-28T17:01:58.289Z,53.20
2017-06-28T17:04:26.629Z,54.30
2017-06-28T17:06:54.857Z,54.30
2017-06-28T17:09:23.494Z,54.60
2017-06-28T17:11:51.952Z,54.60
2017-06-28T17:14:19.967Z,54.80
2017-06-28T17:16:47.881Z,54.90
2017-06-28T17:19:16.593Z,55.00
2017-06-28T17:21:45.150Z,54.90
2017-06-28T17:24:13.913Z,54.90
2017-06-28T17:26:42.058Z,54.90
2017-06-28T17:29:10.453Z,54.90
2017-06-28T17:31:39.234Z,55.50
2017-06-28T17:34:08.080Z,55.50
2017-06-28T17:36:36.544Z,55.50
2017-06-28T17:39:06.961Z,55.90
2017-06-28T17:41:35.218Z,55.90
2017-06-28T17:44:04.470Z,56.30
2017-06-28T17:46:33.944Z,56.50
2017-06-28T17:49:02.224Z,56.50
2017-06-28T17:51:31.252Z,56.60
2017-06-28T17:53:59.496Z,57.10
2017-06-28T17:56:28.078Z,57.40
2017-06-28T17:58:57.111Z,57.40
2017-06-28T18:01:25.460Z,57.50
2017-06-28T18:03:53.647Z,57.60
2017-06-28T18:06:21.832Z,57.90
2017-06-28T18:08:50.668Z,58.50
2017-06-28T18:11:20.186Z,58.70
2017-06-28T18:13:49.370Z,58.70
2017-06-28T18:16:18.247Z,58.80
2017-06-28T18:18:46.799Z,58.80
2017-06-28T18:21:16.002Z,58.80
2017-06-28T18:23:44.024Z,58.80
2017-06-28T18:26:12.799Z,59.10
2017-06-28T18:28:40.554Z,59.10
2017-06-28T18:31:09.147Z,58.70
2017-06-28T18:33:37.798Z,58.60
2017-06-28T18:36:06.472Z,59.00
2017-06-28T18:38:35.150Z,59.30
2017-06-28T18:41:03.771Z,59.30
2017-06-28T18:43:32.567Z,59.20
2017-06-28T18:46:00.620Z,59.40
2017-06-28T18:48:29.435Z,59.30
2017-06-28T18:50:57.555Z,59.30
2017-06-28T18:53:26.432Z,59.20
2017-06-28T18:55:54.784Z,59.50
2017-06-28T18:58:23.637Z,59.50
2017-06-28T19:00:52.796Z,59.90
2017-06-28T19:03:22.758Z,60.00
2017-06-28T19:05:52.001Z,60.00
2017-06-28T19:08:20.805Z,60.10
2017-06-28T19:10:49.744Z,60.30
2017-06-28T19:13:18.764Z,60.40
2017-06-28T19:15:47.624Z,60.60
2017-06-28T19:18:16.491Z,60.90
2017-06-28T19:20:45.057Z,61.30
2017-06-28T19:23:13.392Z,61.50
2017-06-28T19:25:42.884Z,61.70
2017-06-28T19:28:10.826Z,61.80
2017-06-28T19:30:40.387Z,62.10
2017-06-28T19:33:09.565Z,62.30
2017-06-28T19:35:37.951Z,62.30
2017-06-28T19:38:06.205Z,62.50
2017-06-28T19:40:34.742Z,62.70
2017-06-28T19:43:03.513Z,62.90
2017-06-28T19:45:31.711Z,62.80
2017-06-28T19:48:00.783Z,62.90
2017-06-28T19:50:30.214Z,62.90
2017-06-28T19:52:59.007Z,63.00
2017-06-28T19:55:28.093Z,63.00
2017-06-28T19:57:56.548Z,63.40
2017-06-28T20:00:24.796Z,63.50
2017-06-28T20:02:53.499Z,63.90
2017-06-28T20:05:21.511Z,63.90
2017-06-28T20:07:50.526Z,64.20
2017-06-28T20:10:18.965Z,64.20
2017-06-28T20:12:46.928Z,64.40
2017-06-28T20:15:14.933Z,64.50
2017-06-28T20:17:43.369Z,64.60
2017-06-28T20:20:11.912Z,64.60
2017-06-28T20:22:40.093Z,64.90
2017-06-28T20:25:08.286Z,65.10
2017-06-28T20:27:36.669Z,65.30
2017-06-28T20:30:04.654Z,65.50
2017-06-28T20:32:33.092Z,65.60
2017-06-28T20:35:01.577Z,65.70
2017-06-28T20:37:30.075Z,65.80
2017-06-28T20:39:58.044Z,66.00
2017-06-28T20:42:26.226Z,66.10
2017-06-28T20:44:54.167Z,66.30
2017-06-28T20:47:23.219Z,66.40
2017-06-28T20:49:51.170Z,66.60
2017-06-28T20:52:19.182Z,66.60
2017-06-28T20:54:47.663Z,66.80
2017-06-28T20:57:15.703Z,66.90
2017-06-28T20:59:43.994Z,66.90
2017-06-28T21:02:12.206Z,67.00
2017-06-28T21:04:40.294Z,67.00
2017-06-28T21:07:08.528Z,67.00
2017-06-28T21:09:37.147Z,66.10
2017-06-28T21:12:06.433Z,66.60
2017-06-28T21:14:35.287Z,66.60
2017-06-28T21:17:03.591Z,66.60
2017-06-28T21:19:31.754Z,66.60
2017-06-28T21:22:00.083Z,66.80
2017-06-28T21:24:28.356Z,67.00
2017-06-28T21:26:56.730Z,67.00
2017-06-28T21:29:25.544Z,67.30
2017-06-28T21:31:54.177Z,67.20
2017-06-28T21:34:22.450Z,67.30
2017-06-28T21:36:50.857Z,67.10
2017-06-28T21:39:19.218Z,67.00
2017-06-28T21:41:47.857Z,67.10
2017-06-28T21:44:16.227Z,66.90
2017-06-28T21:46:44.676Z,66.60
2017-06-28T21:49:12.911Z,66.60
2017-06-28T21:51:41.728Z,66.40
2017-06-28T21:54:10.038Z,66.60
2017-06-28T21:56:39.049Z,66.60
2017-06-28T21:59:07.646Z,66.70
2017-06-28T22:01:35.562Z,66.80
2017-06-28T22:04:04.189Z,67.10
2017-06-28T22:06:32.625Z,66.90
2017-06-28T22:09:01.670Z,67.20
2017-06-28T22:11:30.041Z,67.20
2017-06-28T22:16:33.031Z,66.60
2017-06-28T22:19:13.712Z,66.70
2017-06-28T22:21:41.819Z,66.90
2017-06-28T22:24:10.450Z,67.10
2017-06-28T22:26:39.133Z,66.80
2017-06-28T22:29:07.557Z,66.80
2017-06-28T22:31:35.749Z,66.80
2017-06-28T22:34:04.086Z,66.70
2017-06-28T22:36:32.719Z,66.70
2017-06-28T22:39:01.154Z,66.70
2017-06-28T22:41:29.761Z,66.90
2017-06-28T22:43:58.603Z,66.90
2017-06-28T22:46:27.840Z,67.20
2017-06-28T22:48:56.745Z,67.20
2017-06-28T22:51:24.932Z,67.20
2017-06-28T22:53:54.091Z,67.10
2017-06-28T22:56:23.052Z,66.80
2017-06-28T22:58:51.445Z,66.80
2017-06-28T23:01:19.829Z,67.30
2017-06-28T23:03:47.679Z,67.40
2017-06-28T23:06:16.364Z,67.30
2017-06-28T23:08:45.226Z,67.20
2017-06-28T23:11:13.345Z,67.30
2017-06-28T23:13:41.290Z,67.40
2017-06-28T23:16:10.817Z,67.70
2017-06-28T23:18:39.838Z,67.90
2017-06-28T23:21:08.200Z,67.90
2017-06-28T23:23:36.342Z,68.10
2017-06-28T23:26:05.035Z,68.10
2017-06-28T23:28:34.055Z,68.30
2017-06-28T23:31:02.350Z,68.30
2017-06-28T23:33:30.328Z,68.30
2017-06-28T23:35:58.457Z,68.60
2017-06-28T23:38:28.237Z,69.00
2017-06-28T23:40:57.496Z,69.00
2017-06-28T23:43:26.275Z,69.10
2017-06-28T23:45:55.232Z,69.10
2017-06-28T23:48:24.071Z,69.10
2017-06-28T23:50:52.888Z,69.30
2017-06-28T23:53:21.018Z,69.30
2017-06-28T23:55:49.658Z,69.50
2017-06-28T23:58:17.954Z,69.40
